sensor_id;sensor_type;location;lat;lon;timestamp;P1;durP1;ratioP1;P2;durP2;ratioP2
20637;SDS011;10478;49.004;8.470;2022-08-04T00:01:04;7.38;;;2.22;;
20637;SDS011;10478;49.004;8.470;2022-08-04T00:03:33;3.08;;;1.80;;
20637;SDS011;10478;49.004;8.470;2022-08-04T00:06:27;2.20;;;1.38;;
20637;SDS011;10478;49.004;8.470;2022-08-04T00:09:15;3.25;;;1.95;;
20637;SDS011;10478;49.004;8.470;2022-08-04T00:11:47;6.60;;;1.40;;
20637;SDS011;10478;49.004;8.470;2022-08-04T00:14:14;3.92;;;1.85;;
20637;SDS011;10478;49.004;8.470;2022-08-04T00:16:40;7.20;;;1.90;;
20637;SDS011;10478;49.004;8.470;2022-08-04T00:19:17;3.80;;;1.90;;
20637;SDS011;10478;49.004;8.470;2022-08-04T00:21:46;8.55;;;2.25;;
20637;SDS011;10478;49.004;8.470;2022-08-04T00:24:16;2.00;;;1.75;;
20637;SDS011;10478;49.004;8.470;2022-08-04T00:26:42;4.60;;;2.28;;
20637;SDS011;10478;49.004;8.470;2022-08-04T00:29:07;1.90;;;1.40;;
20637;SDS011;10478;49.004;8.470;2022-08-04T00:31:33;2.80;;;1.38;;
20637;SDS011;10478;49.004;8.470;2022-08-04T00:33:58;5.85;;;1.58;;
20637;SDS011;10478;49.004;8.470;2022-08-04T00:36:24;2.97;;;1.70;;
20637;SDS011;10478;49.004;8.470;2022-08-04T00:38:50;2.92;;;1.88;;
20637;SDS011;10478;49.004;8.470;2022-08-04T00:53:10;2.13;;;1.42;;
20637;SDS011;10478;49.004;8.470;2022-08-04T00:55:43;3.45;;;1.50;;
20637;SDS011;10478;49.004;8.470;2022-08-04T01:01:28;3.63;;;1.85;;
20637;SDS011;10478;49.004;8.470;2022-08-04T01:04:12;2.70;;;1.85;;
20637;SDS011;10478;49.004;8.470;2022-08-04T01:09:28;2.72;;;2.03;;
20637;SDS011;10478;49.004;8.470;2022-08-04T01:17:58;3.90;;;1.90;;
20637;SDS011;10478;49.004;8.470;2022-08-04T01:20:31;3.08;;;1.85;;
20637;SDS011;10478;49.004;8.470;2022-08-04T01:23:26;2.83;;;1.63;;
20637;SDS011;10478;49.004;8.470;2022-08-04T01:31:29;12.13;;;8.10;;
20637;SDS011;10478;49.004;8.470;2022-08-04T01:33:59;3.40;;;1.83;;
20637;SDS011;10478;49.004;8.470;2022-08-04T01:36:31;2.85;;;1.33;;
20637;SDS011;10478;49.004;8.470;2022-08-04T01:38:57;7.00;;;2.00;;
20637;SDS011;10478;49.004;8.470;2022-08-04T01:41:24;2.78;;;1.58;;
20637;SDS011;10478;49.004;8.470;2022-08-04T01:43:49;3.40;;;1.80;;
20637;SDS011;10478;49.004;8.470;2022-08-04T01:46:18;3.85;;;1.55;;
20637;SDS011;10478;49.004;8.470;2022-08-04T01:48:45;2.53;;;1.80;;
20637;SDS011;10478;49.004;8.470;2022-08-04T01:51:11;2.83;;;1.63;;
20637;SDS011;10478;49.004;8.470;2022-08-04T01:53:41;2.33;;;1.67;;
20637;SDS011;10478;49.004;8.470;2022-08-04T01:56:08;8.82;;;1.90;;
20637;SDS011;10478;49.004;8.470;2022-08-04T01:58:35;3.83;;;1.67;;
20637;SDS011;10478;49.004;8.470;2022-08-04T02:01:08;2.17;;;1.77;;
20637;SDS011;10478;49.004;8.470;2022-08-04T02:03:43;2.10;;;1.40;;
20637;SDS011;10478;49.004;8.470;2022-08-04T02:11:22;5.82;;;1.75;;
20637;SDS011;10478;49.004;8.470;2022-08-04T02:13:53;2.05;;;1.52;;
20637;SDS011;10478;49.004;8.470;2022-08-04T02:21:54;4.45;;;2.17;;
20637;SDS011;10478;49.004;8.470;2022-08-04T02:24:21;2.30;;;1.50;;
20637;SDS011;10478;49.004;8.470;2022-08-04T02:26:49;3.00;;;1.70;;
20637;SDS011;10478;49.004;8.470;2022-08-04T02:32:25;3.00;;;1.70;;
20637;SDS011;10478;49.004;8.470;2022-08-04T02:37:25;3.20;;;1.63;;
20637;SDS011;10478;49.004;8.470;2022-08-04T02:39:51;2.75;;;1.75;;
20637;SDS011;10478;49.004;8.470;2022-08-04T02:42:17;3.45;;;1.75;;
20637;SDS011;10478;49.004;8.470;2022-08-04T02:44:45;3.47;;;2.00;;
20637;SDS011;10478;49.004;8.470;2022-08-04T02:47:14;3.72;;;1.98;;
20637;SDS011;10478;49.004;8.470;2022-08-04T02:49:42;2.17;;;1.65;;
20637;SDS011;10478;49.004;8.470;2022-08-04T02:52:09;3.20;;;1.83;;
20637;SDS011;10478;49.004;8.470;2022-08-04T02:54:38;2.92;;;1.50;;
20637;SDS011;10478;49.004;8.470;2022-08-04T02:57:05;2.35;;;2.00;;
20637;SDS011;10478;49.004;8.470;2022-08-04T02:59:38;2.55;;;1.75;;
20637;SDS011;10478;49.004;8.470;2022-08-04T03:03:01;2.25;;;1.55;;
20637;SDS011;10478;49.004;8.470;2022-08-04T03:05:26;1.95;;;1.48;;
20637;SDS011;10478;49.004;8.470;2022-08-04T03:10:50;3.53;;;1.88;;
20637;SDS011;10478;49.004;8.470;2022-08-04T03:13:27;3.72;;;1.70;;
20637;SDS011;10478;49.004;8.470;2022-08-04T03:16:20;2.60;;;2.05;;
20637;SDS011;10478;49.004;8.470;2022-08-04T03:24:49;2.75;;;1.73;;
20637;SDS011;10478;49.004;8.470;2022-08-04T03:47:40;2.40;;;1.90;;
20637;SDS011;10478;49.004;8.470;2022-08-04T03:53:41;5.07;;;1.95;;
20637;SDS011;10478;49.004;8.470;2022-08-04T03:56:17;3.30;;;1.80;;
20637;SDS011;10478;49.004;8.470;2022-08-04T04:15:33;2.13;;;1.45;;
20637;SDS011;10478;49.004;8.470;2022-08-04T04:23:37;7.38;;;5.32;;
20637;SDS011;10478;49.004;8.470;2022-08-04T04:31:50;5.55;;;2.35;;
20637;SDS011;10478;49.004;8.470;2022-08-04T04:40:19;8.70;;;5.05;;
20637;SDS011;10478;49.004;8.470;2022-08-04T04:45:55;5.80;;;3.25;;
20637;SDS011;10478;49.004;8.470;2022-08-04T04:48:28;85.47;;;49.15;;
20637;SDS011;10478;49.004;8.470;2022-08-04T04:51:09;7.38;;;3.30;;
20637;SDS011;10478;49.004;8.470;2022-08-04T04:54:03;18.27;;;11.18;;
20637;SDS011;10478;49.004;8.470;2022-08-04T04:56:35;4.78;;;2.78;;
20637;SDS011;10478;49.004;8.470;2022-08-04T04:59:07;1.98;;;1.55;;
20637;SDS011;10478;49.004;8.470;2022-08-04T05:01:39;2.47;;;1.70;;
20637;SDS011;10478;49.004;8.470;2022-08-04T05:07:02;3.92;;;1.85;;
20637;SDS011;10478;49.004;8.470;2022-08-04T05:09:43;3.75;;;2.03;;
20637;SDS011;10478;49.004;8.470;2022-08-04T05:12:19;4.28;;;2.22;;
20637;SDS011;10478;49.004;8.470;2022-08-04T05:14:52;3.83;;;2.15;;
20637;SDS011;10478;49.004;8.470;2022-08-04T05:17:21;8.02;;;2.53;;
20637;SDS011;10478;49.004;8.470;2022-08-04T05:22:38;5.13;;;2.30;;
20637;SDS011;10478;49.004;8.470;2022-08-04T05:25:07;8.00;;;3.25;;
20637;SDS011;10478;49.004;8.470;2022-08-04T05:27:39;5.63;;;2.25;;
20637;SDS011;10478;49.004;8.470;2022-08-04T05:30:07;4.00;;;2.03;;
20637;SDS011;10478;49.004;8.470;2022-08-04T05:33:17;2.47;;;1.63;;
20637;SDS011;10478;49.004;8.470;2022-08-04T05:35:29;8.15;;;2.58;;
20637;SDS011;10478;49.004;8.470;2022-08-04T05:37:57;5.45;;;2.30;;
20637;SDS011;10478;49.004;8.470;2022-08-04T05:40:23;4.30;;;2.08;;
20637;SDS011;10478;49.004;8.470;2022-08-04T05:42:50;5.65;;;2.10;;
20637;SDS011;10478;49.004;8.470;2022-08-04T05:45:17;4.47;;;2.10;;
20637;SDS011;10478;49.004;8.470;2022-08-04T05:47:43;5.15;;;2.20;;
20637;SDS011;10478;49.004;8.470;2022-08-04T05:50:09;3.65;;;2.10;;
20637;SDS011;10478;49.004;8.470;2022-08-04T05:52:35;4.20;;;2.38;;
20637;SDS011;10478;49.004;8.470;2022-08-04T05:55:01;3.47;;;2.00;;
20637;SDS011;10478;49.004;8.470;2022-08-04T05:57:28;3.33;;;2.22;;
20637;SDS011;10478;49.004;8.470;2022-08-04T05:59:54;2.88;;;1.85;;
20637;SDS011;10478;49.004;8.470;2022-08-04T06:02:22;4.97;;;1.80;;
20637;SDS011;10478;49.004;8.470;2022-08-04T06:04:48;4.40;;;1.63;;
20637;SDS011;10478;49.004;8.470;2022-08-04T06:07:14;2.60;;;1.70;;
20637;SDS011;10478;49.004;8.470;2022-08-04T06:09:42;3.10;;;1.90;;
20637;SDS011;10478;49.004;8.470;2022-08-04T06:12:16;2.85;;;1.80;;
20637;SDS011;10478;49.004;8.470;2022-08-04T06:14:46;3.17;;;1.73;;
20637;SDS011;10478;49.004;8.470;2022-08-04T06:17:14;2.88;;;1.83;;
20637;SDS011;10478;49.004;8.470;2022-08-04T06:19:47;2.10;;;1.70;;
20637;SDS011;10478;49.004;8.470;2022-08-04T06:22:13;4.55;;;1.77;;
20637;SDS011;10478;49.004;8.470;2022-08-04T06:24:40;3.80;;;2.30;;
20637;SDS011;10478;49.004;8.470;2022-08-04T06:27:05;6.05;;;1.92;;
20637;SDS011;10478;49.004;8.470;2022-08-04T06:29:32;2.15;;;1.80;;
20637;SDS011;10478;49.004;8.470;2022-08-04T06:32:03;4.10;;;1.90;;
20637;SDS011;10478;49.004;8.470;2022-08-04T06:37:14;4.93;;;2.03;;
20637;SDS011;10478;49.004;8.470;2022-08-04T06:39:40;3.03;;;1.95;;
20637;SDS011;10478;49.004;8.470;2022-08-04T06:42:06;5.32;;;1.80;;
20637;SDS011;10478;49.004;8.470;2022-08-04T06:44:31;3.53;;;2.22;;
20637;SDS011;10478;49.004;8.470;2022-08-04T06:46:58;5.97;;;2.08;;
20637;SDS011;10478;49.004;8.470;2022-08-04T06:49:24;4.78;;;2.47;;
20637;SDS011;10478;49.004;8.470;2022-08-04T06:51:50;4.88;;;2.47;;
20637;SDS011;10478;49.004;8.470;2022-08-04T06:54:16;3.75;;;2.53;;
20637;SDS011;10478;49.004;8.470;2022-08-04T06:56:42;4.22;;;2.45;;
20637;SDS011;10478;49.004;8.470;2022-08-04T06:59:09;4.43;;;2.28;;
20637;SDS011;10478;49.004;8.470;2022-08-04T07:01:35;2.95;;;2.17;;
20637;SDS011;10478;49.004;8.470;2022-08-04T07:04:02;3.38;;;2.15;;
20637;SDS011;10478;49.004;8.470;2022-08-04T07:06:27;5.63;;;2.65;;
20637;SDS011;10478;49.004;8.470;2022-08-04T07:08:53;3.85;;;2.10;;
20637;SDS011;10478;49.004;8.470;2022-08-04T07:11:20;3.97;;;2.20;;
20637;SDS011;10478;49.004;8.470;2022-08-04T07:13:45;3.92;;;2.63;;
20637;SDS011;10478;49.004;8.470;2022-08-04T07:16:13;3.90;;;2.58;;
20637;SDS011;10478;49.004;8.470;2022-08-04T07:18:39;5.28;;;2.78;;
20637;SDS011;10478;49.004;8.470;2022-08-04T07:21:05;3.97;;;2.17;;
20637;SDS011;10478;49.004;8.470;2022-08-04T07:23:30;5.32;;;2.45;;
20637;SDS011;10478;49.004;8.470;2022-08-04T07:25:56;3.65;;;2.58;;
20637;SDS011;10478;49.004;8.470;2022-08-04T07:28:23;5.18;;;2.25;;
20637;SDS011;10478;49.004;8.470;2022-08-04T07:30:50;3.50;;;2.38;;
20637;SDS011;10478;49.004;8.470;2022-08-04T07:33:17;6.03;;;2.30;;
20637;SDS011;10478;49.004;8.470;2022-08-04T07:35:43;5.18;;;2.47;;
20637;SDS011;10478;49.004;8.470;2022-08-04T07:38:09;5.07;;;2.35;;
20637;SDS011;10478;49.004;8.470;2022-08-04T07:40:35;3.40;;;2.70;;
20637;SDS011;10478;49.004;8.470;2022-08-04T07:43:01;3.90;;;2.67;;
20637;SDS011;10478;49.004;8.470;2022-08-04T07:45:27;4.82;;;2.67;;
20637;SDS011;10478;49.004;8.470;2022-08-04T07:47:52;4.50;;;2.30;;
20637;SDS011;10478;49.004;8.470;2022-08-04T07:50:17;3.67;;;2.30;;
20637;SDS011;10478;49.004;8.470;2022-08-04T07:52:44;3.92;;;2.30;;
20637;SDS011;10478;49.004;8.470;2022-08-04T07:55:09;5.72;;;2.70;;
20637;SDS011;10478;49.004;8.470;2022-08-04T07:57:35;7.75;;;2.33;;
20637;SDS011;10478;49.004;8.470;2022-08-04T08:00:01;5.80;;;2.72;;
20637;SDS011;10478;49.004;8.470;2022-08-04T08:02:27;3.40;;;2.78;;
20637;SDS011;10478;49.004;8.470;2022-08-04T08:04:53;18.38;;;10.68;;
20637;SDS011;10478;49.004;8.470;2022-08-04T08:07:19;7.07;;;3.50;;
20637;SDS011;10478;49.004;8.470;2022-08-04T08:09:44;3.80;;;2.50;;
20637;SDS011;10478;49.004;8.470;2022-08-04T08:12:09;4.25;;;2.80;;
20637;SDS011;10478;49.004;8.470;2022-08-04T08:14:36;9.98;;;2.58;;
20637;SDS011;10478;49.004;8.470;2022-08-04T08:17:02;4.57;;;2.40;;
20637;SDS011;10478;49.004;8.470;2022-08-04T08:19:31;5.32;;;2.45;;
20637;SDS011;10478;49.004;8.470;2022-08-04T08:21:58;3.88;;;2.25;;
20637;SDS011;10478;49.004;8.470;2022-08-04T08:24:24;5.95;;;2.53;;
20637;SDS011;10478;49.004;8.470;2022-08-04T08:26:49;4.18;;;2.55;;
20637;SDS011;10478;49.004;8.470;2022-08-04T08:29:15;3.38;;;2.80;;
20637;SDS011;10478;49.004;8.470;2022-08-04T08:31:40;6.28;;;2.90;;
20637;SDS011;10478;49.004;8.470;2022-08-04T08:34:07;4.38;;;2.85;;
20637;SDS011;10478;49.004;8.470;2022-08-04T08:36:38;5.15;;;2.97;;
20637;SDS011;10478;49.004;8.470;2022-08-04T08:39:41;5.75;;;2.50;;
20637;SDS011;10478;49.004;8.470;2022-08-04T08:42:17;3.90;;;2.67;;
20637;SDS011;10478;49.004;8.470;2022-08-04T08:45:23;4.32;;;2.85;;
20637;SDS011;10478;49.004;8.470;2022-08-04T08:48:20;6.18;;;2.65;;
20637;SDS011;10478;49.004;8.470;2022-08-04T09:05:04;7.28;;;2.83;;
20637;SDS011;10478;49.004;8.470;2022-08-04T09:08:00;3.72;;;2.10;;
20637;SDS011;10478;49.004;8.470;2022-08-04T09:16:08;2.95;;;2.17;;
20637;SDS011;10478;49.004;8.470;2022-08-04T09:18:44;2.75;;;2.10;;
20637;SDS011;10478;49.004;8.470;2022-08-04T09:24:10;3.90;;;2.25;;
20637;SDS011;10478;49.004;8.470;2022-08-04T09:26:45;4.40;;;2.25;;
20637;SDS011;10478;49.004;8.470;2022-08-04T09:29:21;4.70;;;2.58;;
20637;SDS011;10478;49.004;8.470;2022-08-04T09:31:53;4.45;;;2.08;;
20637;SDS011;10478;49.004;8.470;2022-08-04T09:34:38;3.13;;;2.30;;
20637;SDS011;10478;49.004;8.470;2022-08-04T09:37:11;7.30;;;2.58;;
20637;SDS011;10478;49.004;8.470;2022-08-04T09:39:45;2.30;;;1.88;;
20637;SDS011;10478;49.004;8.470;2022-08-04T09:45:26;3.92;;;2.25;;
20637;SDS011;10478;49.004;8.470;2022-08-04T09:48:01;3.30;;;2.30;;
20637;SDS011;10478;49.004;8.470;2022-08-04T09:50:33;2.88;;;2.10;;
20637;SDS011;10478;49.004;8.470;2022-08-04T09:53:02;2.58;;;1.92;;
20637;SDS011;10478;49.004;8.470;2022-08-04T10:01:05;4.57;;;2.05;;
20637;SDS011;10478;49.004;8.470;2022-08-04T10:03:40;3.25;;;2.28;;
20637;SDS011;10478;49.004;8.470;2022-08-04T10:09:13;3.28;;;2.30;;
20637;SDS011;10478;49.004;8.470;2022-08-04T10:14:55;4.70;;;2.75;;
20637;SDS011;10478;49.004;8.470;2022-08-04T10:17:43;3.53;;;2.63;;
20637;SDS011;10478;49.004;8.470;2022-08-04T10:23:00;6.65;;;2.03;;
20637;SDS011;10478;49.004;8.470;2022-08-04T10:25:48;5.72;;;2.10;;
20637;SDS011;10478;49.004;8.470;2022-08-04T10:28:19;2.92;;;2.08;;
20637;SDS011;10478;49.004;8.470;2022-08-04T10:30:48;2.90;;;2.22;;
20637;SDS011;10478;49.004;8.470;2022-08-04T10:33:30;7.25;;;2.20;;
20637;SDS011;10478;49.004;8.470;2022-08-04T10:36:02;8.63;;;2.13;;
20637;SDS011;10478;49.004;8.470;2022-08-04T10:40:57;3.35;;;2.28;;
20637;SDS011;10478;49.004;8.470;2022-08-04T10:43:37;4.88;;;1.77;;
20637;SDS011;10478;49.004;8.470;2022-08-04T10:46:17;5.75;;;1.92;;
20637;SDS011;10478;49.004;8.470;2022-08-04T10:51:41;4.80;;;1.88;;
20637;SDS011;10478;49.004;8.470;2022-08-04T10:54:12;3.67;;;1.60;;
20637;SDS011;10478;49.004;8.470;2022-08-04T10:56:41;2.25;;;1.80;;
20637;SDS011;10478;49.004;8.470;2022-08-04T10:59:14;1.80;;;1.52;;
20637;SDS011;10478;49.004;8.470;2022-08-04T11:01:41;2.38;;;1.85;;
20637;SDS011;10478;49.004;8.470;2022-08-04T11:04:13;4.78;;;1.73;;
20637;SDS011;10478;49.004;8.470;2022-08-04T11:06:42;3.13;;;2.03;;
20637;SDS011;10478;49.004;8.470;2022-08-04T11:09:07;3.90;;;1.90;;
20637;SDS011;10478;49.004;8.470;2022-08-04T11:11:44;2.80;;;2.08;;
20637;SDS011;10478;49.004;8.470;2022-08-04T11:14:14;5.90;;;1.77;;
20637;SDS011;10478;49.004;8.470;2022-08-04T11:16:46;2.00;;;1.17;;
20637;SDS011;10478;49.004;8.470;2022-08-04T11:19:18;3.13;;;1.60;;
20637;SDS011;10478;49.004;8.470;2022-08-04T11:22:10;3.80;;;1.75;;
20637;SDS011;10478;49.004;8.470;2022-08-04T11:27:36;2.42;;;1.45;;
20637;SDS011;10478;49.004;8.470;2022-08-04T11:30:06;7.78;;;2.00;;
20637;SDS011;10478;49.004;8.470;2022-08-04T11:32:35;3.17;;;1.35;;
20637;SDS011;10478;49.004;8.470;2022-08-04T11:35:02;4.22;;;1.58;;
20637;SDS011;10478;49.004;8.470;2022-08-04T11:37:46;1.50;;;1.35;;
20637;SDS011;10478;49.004;8.470;2022-08-04T11:40:22;2.53;;;1.60;;
20637;SDS011;10478;49.004;8.470;2022-08-04T11:42:54;1.83;;;1.38;;
20637;SDS011;10478;49.004;8.470;2022-08-04T11:45:23;2.28;;;1.52;;
20637;SDS011;10478;49.004;8.470;2022-08-04T11:53:09;2.72;;;1.45;;
20637;SDS011;10478;49.004;8.470;2022-08-04T11:55:40;2.75;;;1.45;;
20637;SDS011;10478;49.004;8.470;2022-08-04T11:58:07;3.45;;;1.80;;
20637;SDS011;10478;49.004;8.470;2022-08-04T12:00:32;1.33;;;1.02;;
20637;SDS011;10478;49.004;8.470;2022-08-04T12:06:19;4.20;;;1.65;;
20637;SDS011;10478;49.004;8.470;2022-08-04T12:11:44;2.85;;;1.33;;
20637;SDS011;10478;49.004;8.470;2022-08-04T12:14:37;3.13;;;1.52;;
20637;SDS011;10478;49.004;8.470;2022-08-04T12:17:04;2.92;;;1.25;;
20637;SDS011;10478;49.004;8.470;2022-08-04T12:19:36;1.58;;;1.02;;
20637;SDS011;10478;49.004;8.470;2022-08-04T12:22:12;3.28;;;1.20;;
20637;SDS011;10478;49.004;8.470;2022-08-04T12:24:43;2.45;;;0.95;;
20637;SDS011;10478;49.004;8.470;2022-08-04T12:27:15;1.17;;;0.88;;
20637;SDS011;10478;49.004;8.470;2022-08-04T12:29:41;1.92;;;1.08;;
20637;SDS011;10478;49.004;8.470;2022-08-04T12:32:15;2.00;;;1.20;;
20637;SDS011;10478;49.004;8.470;2022-08-04T12:37:32;2.50;;;1.38;;
20637;SDS011;10478;49.004;8.470;2022-08-04T12:40:13;1.58;;;1.10;;
20637;SDS011;10478;49.004;8.470;2022-08-04T12:42:47;1.33;;;1.00;;
20637;SDS011;10478;49.004;8.470;2022-08-04T12:45:22;3.50;;;1.38;;
20637;SDS011;10478;49.004;8.470;2022-08-04T12:47:47;1.70;;;0.90;;
20637;SDS011;10478;49.004;8.470;2022-08-04T12:50:15;2.35;;;1.20;;
20637;SDS011;10478;49.004;8.470;2022-08-04T12:52:43;2.10;;;1.10;;
20637;SDS011;10478;49.004;8.470;2022-08-04T12:55:14;1.35;;;1.08;;
20637;SDS011;10478;49.004;8.470;2022-08-04T12:57:41;6.63;;;1.17;;
20637;SDS011;10478;49.004;8.470;2022-08-04T13:00:07;1.65;;;1.10;;
20637;SDS011;10478;49.004;8.470;2022-08-04T13:02:36;2.30;;;1.30;;
20637;SDS011;10478;49.004;8.470;2022-08-04T13:05:05;1.75;;;1.10;;
20637;SDS011;10478;49.004;8.470;2022-08-04T13:07:39;2.08;;;1.30;;
20637;SDS011;10478;49.004;8.470;2022-08-04T13:10:11;2.72;;;1.30;;
20637;SDS011;10478;49.004;8.470;2022-08-04T13:12:37;1.50;;;1.15;;
20637;SDS011;10478;49.004;8.470;2022-08-04T13:15:09;1.52;;;0.80;;
20637;SDS011;10478;49.004;8.470;2022-08-04T13:17:50;1.05;;;0.73;;
20637;SDS011;10478;49.004;8.470;2022-08-04T13:20:23;1.02;;;0.73;;
20637;SDS011;10478;49.004;8.470;2022-08-04T13:22:50;1.55;;;1.05;;
20637;SDS011;10478;49.004;8.470;2022-08-04T13:25:16;3.60;;;1.30;;
20637;SDS011;10478;49.004;8.470;2022-08-04T13:27:41;1.98;;;1.20;;
20637;SDS011;10478;49.004;8.470;2022-08-04T13:30:11;1.42;;;1.00;;
20637;SDS011;10478;49.004;8.470;2022-08-04T13:32:37;1.45;;;1.05;;
20637;SDS011;10478;49.004;8.470;2022-08-04T13:35:02;4.43;;;0.95;;
20637;SDS011;10478;49.004;8.470;2022-08-04T13:37:31;5.03;;;1.13;;
20637;SDS011;10478;49.004;8.470;2022-08-04T13:39:58;1.75;;;1.00;;
20637;SDS011;10478;49.004;8.470;2022-08-04T13:42:25;1.67;;;1.10;;
20637;SDS011;10478;49.004;8.470;2022-08-04T13:44:55;1.60;;;1.20;;
20637;SDS011;10478;49.004;8.470;2022-08-04T13:47:24;0.95;;;0.70;;
20637;SDS011;10478;49.004;8.470;2022-08-04T13:52:36;1.95;;;1.13;;
20637;SDS011;10478;49.004;8.470;2022-08-04T13:55:01;3.67;;;1.15;;
20637;SDS011;10478;49.004;8.470;2022-08-04T13:57:29;1.50;;;1.02;;
20637;SDS011;10478;49.004;8.470;2022-08-04T14:00:04;2.00;;;1.15;;
20637;SDS011;10478;49.004;8.470;2022-08-04T14:02:33;3.30;;;1.17;;
20637;SDS011;10478;49.004;8.470;2022-08-04T14:05:20;2.00;;;1.10;;
20637;SDS011;10478;49.004;8.470;2022-08-04T14:07:49;1.90;;;0.85;;
20637;SDS011;10478;49.004;8.470;2022-08-04T14:10:20;2.55;;;1.23;;
20637;SDS011;10478;49.004;8.470;2022-08-04T14:12:47;3.30;;;1.13;;
20637;SDS011;10478;49.004;8.470;2022-08-04T14:15:33;2.05;;;1.15;;
20637;SDS011;10478;49.004;8.470;2022-08-04T14:23:37;2.28;;;1.15;;
20637;SDS011;10478;49.004;8.470;2022-08-04T14:28:46;4.32;;;1.45;;
20637;SDS011;10478;49.004;8.470;2022-08-04T14:31:13;3.30;;;1.23;;
20637;SDS011;10478;49.004;8.470;2022-08-04T14:33:40;1.67;;;1.02;;
20637;SDS011;10478;49.004;8.470;2022-08-04T14:36:06;1.80;;;1.20;;
20637;SDS011;10478;49.004;8.470;2022-08-04T14:41:15;1.17;;;0.90;;
20637;SDS011;10478;49.004;8.470;2022-08-04T14:43:43;1.50;;;1.20;;
20637;SDS011;10478;49.004;8.470;2022-08-04T14:46:10;2.10;;;1.58;;
20637;SDS011;10478;49.004;8.470;2022-08-04T14:48:36;5.30;;;2.42;;
20637;SDS011;10478;49.004;8.470;2022-08-04T14:51:03;3.30;;;2.00;;
20637;SDS011;10478;49.004;8.470;2022-08-04T14:53:28;4.30;;;1.77;;
20637;SDS011;10478;49.004;8.470;2022-08-04T14:55:55;2.55;;;1.35;;
20637;SDS011;10478;49.004;8.470;2022-08-04T15:00:58;2.95;;;1.48;;
20637;SDS011;10478;49.004;8.470;2022-08-04T15:03:25;1.95;;;1.30;;
20637;SDS011;10478;49.004;8.470;2022-08-04T15:05:51;6.00;;;1.85;;
20637;SDS011;10478;49.004;8.470;2022-08-04T15:08:17;1.40;;;1.17;;
20637;SDS011;10478;49.004;8.470;2022-08-04T15:10:43;4.25;;;1.70;;
20637;SDS011;10478;49.004;8.470;2022-08-04T15:13:09;2.03;;;1.50;;
20637;SDS011;10478;49.004;8.470;2022-08-04T15:15:37;3.55;;;1.45;;
20637;SDS011;10478;49.004;8.470;2022-08-04T15:18:03;2.78;;;1.90;;
20637;SDS011;10478;49.004;8.470;2022-08-04T15:20:31;2.85;;;2.13;;
20637;SDS011;10478;49.004;8.470;2022-08-04T15:22:57;5.95;;;2.40;;
20637;SDS011;10478;49.004;8.470;2022-08-04T15:25:22;6.18;;;2.85;;
20637;SDS011;10478;49.004;8.470;2022-08-04T15:27:49;4.40;;;2.45;;
20637;SDS011;10478;49.004;8.470;2022-08-04T15:30:15;2.88;;;1.83;;
20637;SDS011;10478;49.004;8.470;2022-08-04T15:32:49;6.90;;;2.00;;
20637;SDS011;10478;49.004;8.470;2022-08-04T15:35:17;3.97;;;2.42;;
20637;SDS011;10478;49.004;8.470;2022-08-04T15:40:17;1.83;;;1.15;;
20637;SDS011;10478;49.004;8.470;2022-08-04T15:42:48;2.15;;;1.77;;
20637;SDS011;10478;49.004;8.470;2022-08-04T15:45:24;1.90;;;0.98;;
20637;SDS011;10478;49.004;8.470;2022-08-04T15:53:03;1.70;;;0.90;;
20637;SDS011;10478;49.004;8.470;2022-08-04T15:55:42;4.63;;;2.08;;
20637;SDS011;10478;49.004;8.470;2022-08-04T15:58:08;14.10;;;9.40;;
20637;SDS011;10478;49.004;8.470;2022-08-04T16:05:55;7.07;;;4.95;;
20637;SDS011;10478;49.004;8.470;2022-08-04T16:08:20;6.70;;;4.40;;
20637;SDS011;10478;49.004;8.470;2022-08-04T16:10:46;3.95;;;2.80;;
20637;SDS011;10478;49.004;8.470;2022-08-04T16:13:14;7.78;;;5.38;;
20637;SDS011;10478;49.004;8.470;2022-08-04T16:15:47;3.97;;;2.55;;
20637;SDS011;10478;49.004;8.470;2022-08-04T16:20:55;6.22;;;2.80;;
20637;SDS011;10478;49.004;8.470;2022-08-04T16:26:10;5.07;;;2.70;;
20637;SDS011;10478;49.004;8.470;2022-08-04T16:28:36;2.63;;;1.88;;
20637;SDS011;10478;49.004;8.470;2022-08-04T16:31:04;2.25;;;1.40;;
20637;SDS011;10478;49.004;8.470;2022-08-04T16:33:31;2.25;;;1.42;;
20637;SDS011;10478;49.004;8.470;2022-08-04T16:35:57;1.02;;;0.82;;
20637;SDS011;10478;49.004;8.470;2022-08-04T16:38:23;1.77;;;1.15;;
20637;SDS011;10478;49.004;8.470;2022-08-04T16:40:59;1.77;;;1.08;;
20637;SDS011;10478;49.004;8.470;2022-08-04T16:43:29;1.85;;;1.30;;
20637;SDS011;10478;49.004;8.470;2022-08-04T16:45:59;1.30;;;1.02;;
20637;SDS011;10478;49.004;8.470;2022-08-04T16:48:26;1.88;;;1.05;;
20637;SDS011;10478;49.004;8.470;2022-08-04T16:50:56;3.65;;;1.38;;
20637;SDS011;10478;49.004;8.470;2022-08-04T16:53:25;1.25;;;0.82;;
20637;SDS011;10478;49.004;8.470;2022-08-04T16:55:52;1.20;;;0.70;;
20637;SDS011;10478;49.004;8.470;2022-08-04T16:58:51;2.33;;;0.93;;
20637;SDS011;10478;49.004;8.470;2022-08-04T17:01:12;2.30;;;0.95;;
20637;SDS011;10478;49.004;8.470;2022-08-04T17:03:47;128.73;;;93.60;;
20637;SDS011;10478;49.004;8.470;2022-08-04T17:06:14;10.02;;;8.05;;
20637;SDS011;10478;49.004;8.470;2022-08-04T17:08:40;2.83;;;1.90;;
20637;SDS011;10478;49.004;8.470;2022-08-04T17:11:06;1.40;;;1.10;;
20637;SDS011;10478;49.004;8.470;2022-08-04T17:13:35;2.80;;;1.30;;
20637;SDS011;10478;49.004;8.470;2022-08-04T17:16:04;1.58;;;1.20;;
20637;SDS011;10478;49.004;8.470;2022-08-04T17:18:33;46.70;;;35.25;;
20637;SDS011;10478;49.004;8.470;2022-08-04T17:21:07;8.15;;;5.10;;
20637;SDS011;10478;49.004;8.470;2022-08-04T17:23:44;4.90;;;3.75;;
20637;SDS011;10478;49.004;8.470;2022-08-04T17:26:15;8.60;;;6.10;;
20637;SDS011;10478;49.004;8.470;2022-08-04T17:28:45;3.15;;;2.28;;
20637;SDS011;10478;49.004;8.470;2022-08-04T17:31:11;1.60;;;1.40;;
20637;SDS011;10478;49.004;8.470;2022-08-04T17:33:37;1.55;;;1.13;;
20637;SDS011;10478;49.004;8.470;2022-08-04T17:36:04;1.92;;;1.10;;
20637;SDS011;10478;49.004;8.470;2022-08-04T17:38:32;1.23;;;0.90;;
20637;SDS011;10478;49.004;8.470;2022-08-04T17:41:06;5.32;;;3.40;;
20637;SDS011;10478;49.004;8.470;2022-08-04T17:43:43;2.00;;;1.70;;
20637;SDS011;10478;49.004;8.470;2022-08-04T17:46:13;2.60;;;1.27;;
20637;SDS011;10478;49.004;8.470;2022-08-04T17:48:39;2.28;;;1.20;;
20637;SDS011;10478;49.004;8.470;2022-08-04T17:51:12;42.20;;;30.00;;
20637;SDS011;10478;49.004;8.470;2022-08-04T17:53:38;72.13;;;54.33;;
20637;SDS011;10478;49.004;8.470;2022-08-04T17:56:03;19.13;;;14.32;;
20637;SDS011;10478;49.004;8.470;2022-08-04T17:58:29;31.63;;;22.45;;
20637;SDS011;10478;49.004;8.470;2022-08-04T18:00:58;45.97;;;35.17;;
20637;SDS011;10478;49.004;8.470;2022-08-04T18:03:24;49.65;;;34.03;;
20637;SDS011;10478;49.004;8.470;2022-08-04T18:05:50;15.20;;;12.30;;
20637;SDS011;10478;49.004;8.470;2022-08-04T18:08:21;67.43;;;46.72;;
20637;SDS011;10478;49.004;8.470;2022-08-04T18:10:48;51.75;;;35.63;;
20637;SDS011;10478;49.004;8.470;2022-08-04T18:13:13;41.90;;;32.78;;
20637;SDS011;10478;49.004;8.470;2022-08-04T18:15:39;44.80;;;24.40;;
20637;SDS011;10478;49.004;8.470;2022-08-04T18:18:18;63.67;;;25.88;;
20637;SDS011;10478;49.004;8.470;2022-08-04T18:20:44;129.25;;;43.30;;
20637;SDS011;10478;49.004;8.470;2022-08-04T18:23:10;255.13;;;79.95;;
20637;SDS011;10478;49.004;8.470;2022-08-04T18:25:36;227.85;;;68.72;;
20637;SDS011;10478;49.004;8.470;2022-08-04T18:28:03;162.90;;;48.28;;
20637;SDS011;10478;49.004;8.470;2022-08-04T18:30:30;103.63;;;35.00;;
20637;SDS011;10478;49.004;8.470;2022-08-04T18:32:55;77.00;;;28.20;;
20637;SDS011;10478;49.004;8.470;2022-08-04T18:35:21;57.13;;;20.80;;
20637;SDS011;10478;49.004;8.470;2022-08-04T18:37:46;40.63;;;15.90;;
20637;SDS011;10478;49.004;8.470;2022-08-04T18:40:12;40.45;;;16.23;;
20637;SDS011;10478;49.004;8.470;2022-08-04T18:42:38;38.80;;;18.45;;
20637;SDS011;10478;49.004;8.470;2022-08-04T18:45:03;39.03;;;18.73;;